Impacts TAF Board
For situational awareness. Not to be used for flight planning purposes.
IDs:

KPIE - St Petersburg/Clearw, FL, US

Issued at 1740 UTC 21 Sep 2021
Updated at 2120 UTC 21 Sep 2021
Potential Impact None Slight Moderate High
Time2053Z 21/22Z 21/23Z 22/00Z 22/01Z 22/02Z 22/03Z 22/04Z 22/05Z 22/06Z 22/07Z 22/08Z 22/09Z 22/10Z>>
Type OBS PRVL PRVL PRVL PRVL PRVL PRVL PRVL PRVL PRVL PRVL PRVL PRVL PRVL
VIS 10 >6 >6 >6 >6 >6 >6 >6 >6 >6 >6 >6 >6 >6
CIG -- 50 50 50 50 50 250 250 250 250 250 250 250 250
Cover FEW BKN BKN BKN BKN BKN BKN BKN BKN BKN BKN BKN BKN BKN
FltCat VFR VFR VFR VFR VFR VFR VFR VFR VFR VFR VFR VFR VFR VFR
WX -- VCTS VCTS VCSH VCSH VCSH -- -- -- -- -- -- -- --
WDir 300 330 330 80 80 80 VRB VRB VRB VRB VRB VRB VRB VRB
WSpd 8 7 7 5 5 5 3 3 3 3 3 3 3 3
WGst -- -- -- -- -- -- -- -- -- -- -- -- -- --
Raw TAF
KPIE 211740Z 2118/2218 03005KT P6SM VCSH SCT035 SCT200
  FM212000 33007KT P6SM VCTS SCT030CB BKN050
  FM220000 08005KT P6SM VCSH SCT030 BKN050
  FM220300 VRB03KT P6SM FEW020 SCT120 BKN250
  FM221200 08004KT P6SM VCSH SCT020 SCT120 BKN250
  FM221500 05006KT P6SM VCSH SCT025 SCT120 BKN250


Raw METAR
KPIE 212053Z 30008KT 10SM FEW027 31/24 A2999 RMK AO2 LTG DSNT E AND SE SLP154 T03060239 55015
KPIE 211953Z 30009KT 10SM FEW050 32/23 A2999 RMK AO2 SLP153 T03170228
KPIE 211853Z AUTO 35004KT 10SM FEW040 32/24 A3001 RMK AO2 SLP161 T03170239

METAR Board
Radar Display
Forecast Discussion
For situational awareness. Not to be used for flight planning purposes.